createdAt,value
2023-03-18T00:00:31.947Z,55.25
2023-03-18T00:01:21.840Z,55.25
2023-03-18T00:02:12.042Z,55.26
2023-03-18T00:03:02.111Z,55.23
2023-03-18T00:03:52.141Z,55.22
2023-03-18T00:04:42.155Z,55.23
2023-03-18T00:05:32.236Z,55.22
2023-03-18T00:06:22.258Z,55.18
2023-03-18T00:07:12.321Z,55.25
2023-03-18T00:08:02.388Z,55.20
2023-03-18T00:08:52.443Z,55.21
2023-03-18T00:09:42.468Z,55.22
2023-03-18T00:10:32.891Z,55.27
2023-03-18T00:11:22.544Z,55.24
2023-03-18T00:12:12.586Z,55.24
2023-03-18T00:13:02.680Z,55.22
2023-03-18T00:13:52.707Z,55.21
2023-03-18T00:14:42.784Z,55.21
2023-03-18T00:15:32.806Z,55.22
2023-03-18T00:16:22.907Z,55.22
2023-03-18T00:17:12.931Z,55.23
2023-03-18T00:18:03.256Z,55.25
2023-03-18T00:18:53.284Z,55.28
2023-03-18T00:19:43.359Z,55.32
2023-03-18T00:20:33.689Z,55.32
2023-03-18T00:21:23.446Z,55.30
2023-03-18T00:22:13.551Z,55.29
2023-03-18T00:23:03.645Z,55.27
2023-03-18T00:23:53.692Z,55.36
2023-03-18T00:24:43.752Z,55.40
2023-03-18T00:25:33.792Z,55.48
2023-03-18T00:26:23.861Z,55.42
2023-03-18T00:27:13.927Z,55.39
2023-03-18T00:28:04.008Z,55.36
2023-03-18T00:28:54.043Z,55.36
2023-03-18T00:29:44.084Z,55.28
2023-03-18T00:30:34.298Z,55.28
2023-03-18T00:31:24.209Z,55.29
2023-03-18T00:32:14.460Z,55.33
2023-03-18T00:33:04.587Z,55.47
2023-03-18T00:33:54.617Z,55.44
2023-03-18T00:34:44.654Z,55.45
2023-03-18T00:35:34.741Z,55.46
2023-03-18T00:36:24.776Z,55.40
2023-03-18T00:37:14.837Z,55.37
2023-03-18T00:38:04.889Z,55.39
2023-03-18T00:38:54.928Z,55.34
2023-03-18T00:39:44.960Z,55.40
2023-03-18T00:40:34.990Z,55.45
2023-03-18T00:41:25.327Z,55.41
2023-03-18T00:42:15.396Z,55.42
2023-03-18T00:43:05.473Z,55.47
2023-03-18T00:43:55.781Z,55.37
2023-03-18T00:44:45.802Z,55.41
2023-03-18T00:45:35.827Z,55.45
2023-03-18T00:46:26.096Z,55.46
2023-03-18T00:47:15.954Z,55.44
2023-03-18T00:48:06.044Z,55.37
2023-03-18T00:48:56.116Z,55.34
2023-03-18T00:49:46.143Z,55.36
2023-03-18T00:50:36.300Z,55.36
2023-03-18T00:51:26.385Z,55.32
2023-03-18T00:52:16.416Z,55.32
2023-03-18T00:53:06.463Z,55.43
2023-03-18T00:53:56.507Z,55.36
2023-03-18T00:54:46.545Z,55.33
2023-03-18T00:55:36.571Z,55.45
2023-03-18T00:56:26.659Z,55.37
2023-03-18T00:57:16.725Z,55.41
2023-03-18T00:58:06.806Z,55.35
2023-03-18T00:58:56.859Z,55.32
2023-03-18T00:59:46.891Z,55.34
2023-03-18T01:00:36.986Z,55.44
2023-03-18T01:01:27.045Z,55.59
2023-03-18T01:02:17.138Z,55.58
2023-03-18T01:03:07.099Z,55.56
2023-03-18T01:03:57.148Z,55.54
2023-03-18T01:04:47.215Z,55.57
2023-03-18T01:05:37.226Z,55.55
2023-03-18T01:06:27.318Z,55.41
2023-03-18T01:07:17.344Z,55.36
2023-03-18T01:08:07.417Z,55.36
2023-03-18T01:08:57.465Z,55.37
2023-03-18T01:09:47.500Z,55.36
2023-03-18T01:10:37.565Z,55.43
2023-03-18T01:11:27.647Z,55.46
2023-03-18T01:12:17.682Z,55.53
2023-03-18T01:13:08.015Z,55.69
2023-03-18T01:13:58.097Z,55.79
2023-03-18T01:14:48.159Z,55.80
2023-03-18T01:15:38.450Z,55.63
2023-03-18T01:16:28.622Z,55.50
2023-03-18T01:17:18.572Z,55.53
2023-03-18T01:18:08.614Z,55.53
2023-03-18T01:18:58.685Z,55.61
2023-03-18T01:19:48.716Z,55.86
2023-03-18T01:20:38.763Z,55.80
2023-03-18T01:21:28.819Z,55.80
2023-03-18T01:22:18.850Z,55.70
2023-03-18T01:23:08.936Z,55.75
2023-03-18T01:23:58.977Z,55.62
2023-03-18T01:24:49.016Z,55.64
2023-03-18T01:25:39.040Z,55.59
2023-03-18T01:26:29.132Z,55.65
2023-03-18T01:27:19.165Z,55.63
2023-03-18T01:28:09.236Z,55.97
2023-03-18T01:28:59.323Z,56.12
2023-03-18T01:29:49.354Z,56.16
2023-03-18T01:30:39.403Z,56.13
2023-03-18T01:31:29.745Z,56.05
2023-03-18T01:32:19.737Z,55.83
2023-03-18T01:33:09.928Z,55.98
2023-03-18T01:34:00.135Z,55.94
2023-03-18T01:34:50.215Z,55.88
2023-03-18T01:35:40.317Z,56.16
2023-03-18T01:36:30.587Z,56.20
2023-03-18T01:37:20.610Z,56.03
2023-03-18T01:38:10.686Z,56.20
2023-03-18T01:39:00.773Z,56.21
2023-03-18T01:39:50.794Z,56.28
2023-03-18T01:40:40.857Z,55.98
2023-03-18T01:41:30.931Z,56.14
2023-03-18T01:42:20.972Z,56.12
2023-03-18T01:43:11.004Z,56.02
2023-03-18T01:44:01.087Z,56.05
2023-03-18T01:44:51.118Z,56.01
2023-03-18T01:45:41.480Z,55.99
2023-03-18T01:46:31.458Z,55.98
2023-03-18T01:47:21.522Z,56.16
2023-03-18T01:48:11.600Z,56.06
2023-03-18T01:49:01.635Z,56.01
2023-03-18T01:49:51.670Z,56.35
2023-03-18T01:50:41.704Z,56.56
2023-03-18T01:51:31.801Z,56.25
2023-03-18T01:52:21.802Z,55.98
2023-03-18T01:53:11.888Z,55.98
2023-03-18T01:54:01.918Z,55.94
2023-03-18T01:54:51.949Z,55.95
2023-03-18T01:55:42.014Z,55.99
2023-03-18T01:56:32.090Z,56.28
2023-03-18T01:57:22.115Z,56.40
2023-03-18T01:58:12.195Z,56.51
2023-03-18T01:59:02.244Z,55.92
2023-03-18T01:59:52.267Z,55.84
2023-03-18T02:00:42.373Z,56.02
2023-03-18T02:01:32.736Z,56.12
2023-03-18T02:02:22.681Z,56.05
2023-03-18T02:03:12.783Z,56.39
2023-03-18T02:04:02.830Z,56.49
2023-03-18T02:04:52.869Z,56.68
2023-03-18T02:05:42.894Z,56.36
2023-03-18T02:06:32.973Z,56.61
2023-03-18T02:07:23.038Z,56.64
2023-03-18T02:08:13.098Z,56.51
2023-03-18T02:09:03.141Z,56.69
2023-03-18T02:09:53.174Z,56.65
2023-03-18T02:10:43.243Z,56.82
2023-03-18T02:11:33.331Z,56.76
2023-03-18T02:12:23.351Z,56.63
2023-03-18T02:13:13.414Z,56.62
2023-03-18T02:14:03.480Z,56.83
2023-03-18T02:14:53.527Z,57.02
2023-03-18T02:15:43.551Z,56.79
2023-03-18T02:16:33.710Z,57.06
2023-03-18T02:17:23.636Z,56.66
2023-03-18T02:18:13.719Z,56.79
2023-03-18T02:19:03.765Z,56.88
2023-03-18T02:19:53.803Z,56.88
2023-03-18T02:20:43.836Z,56.89
2023-03-18T02:21:33.913Z,57.08
2023-03-18T02:22:23.928Z,56.69
2023-03-18T02:23:14.020Z,56.61
2023-03-18T02:24:04.036Z,56.90
2023-03-18T02:24:54.071Z,57.12
2023-03-18T02:25:44.102Z,57.02
2023-03-18T02:26:34.185Z,57.02
2023-03-18T02:27:24.216Z,57.13
2023-03-18T02:28:14.280Z,56.82
2023-03-18T02:29:04.336Z,56.76
2023-03-18T02:29:54.376Z,57.06
2023-03-18T02:30:44.487Z,57.14
2023-03-18T02:31:34.480Z,56.86
2023-03-18T02:32:24.515Z,57.05
2023-03-18T02:33:14.549Z,57.12
2023-03-18T02:34:04.603Z,56.95
2023-03-18T02:34:54.681Z,57.02
2023-03-18T02:35:44.816Z,57.08
2023-03-18T02:36:34.769Z,56.93
2023-03-18T02:37:24.812Z,57.05
2023-03-18T02:38:14.886Z,56.95
2023-03-18T02:39:04.957Z,57.10
2023-03-18T02:39:54.977Z,56.94
2023-03-18T02:40:45.025Z,57.27
2023-03-18T02:41:35.085Z,57.30
2023-03-18T02:42:25.118Z,57.21
2023-03-18T02:43:15.160Z,57.28
2023-03-18T02:44:05.202Z,57.12
2023-03-18T02:44:55.238Z,56.98
2023-03-18T02:45:45.343Z,57.14
2023-03-18T02:46:35.349Z,57.26
2023-03-18T02:47:25.371Z,57.28
2023-03-18T02:48:15.458Z,57.50
2023-03-18T02:49:05.521Z,57.08
2023-03-18T02:49:55.548Z,56.87
2023-03-18T02:50:45.620Z,56.97
2023-03-18T02:51:35.634Z,56.89
2023-03-18T02:52:25.667Z,57.23
2023-03-18T02:53:15.704Z,57.26
2023-03-18T02:54:05.753Z,57.23
2023-03-18T02:54:55.948Z,56.97
2023-03-18T02:55:45.965Z,56.90
2023-03-18T02:56:36.004Z,57.05
2023-03-18T02:57:26.036Z,56.84
2023-03-18T02:58:16.116Z,56.97
2023-03-18T02:59:06.167Z,57.39
2023-03-18T02:59:56.210Z,57.48
2023-03-18T03:00:46.251Z,57.27
2023-03-18T03:01:36.386Z,57.73
2023-03-18T03:02:26.421Z,57.54
2023-03-18T03:03:16.580Z,57.26
2023-03-18T03:04:06.500Z,57.33
2023-03-18T03:04:56.541Z,57.13
2023-03-18T03:05:46.576Z,57.46
2023-03-18T03:06:36.640Z,57.73
2023-03-18T03:07:26.654Z,57.57
2023-03-18T03:08:16.789Z,57.54
2023-03-18T03:09:06.841Z,57.45
2023-03-18T03:09:56.878Z,57.68
2023-03-18T03:10:46.942Z,57.70
2023-03-18T03:11:36.988Z,57.69
2023-03-18T03:12:27.007Z,57.35
2023-03-18T03:13:17.084Z,57.26
2023-03-18T03:14:07.139Z,57.39
2023-03-18T03:14:57.181Z,57.38
2023-03-18T03:15:47.254Z,57.17
2023-03-18T03:16:37.276Z,56.98
2023-03-18T03:17:27.369Z,57.14
2023-03-18T03:18:17.426Z,57.57
2023-03-18T03:19:07.471Z,57.69
2023-03-18T03:19:57.517Z,57.83
2023-03-18T03:20:47.545Z,57.74
2023-03-18T03:21:37.582Z,57.66
2023-03-18T03:22:27.621Z,57.25
2023-03-18T03:23:17.673Z,57.74
2023-03-18T03:24:07.712Z,57.62
2023-03-18T03:24:57.746Z,57.32
2023-03-18T03:25:47.777Z,57.15
2023-03-18T03:26:37.877Z,57.40
2023-03-18T03:27:27.907Z,57.22
2023-03-18T03:28:17.980Z,57.07
2023-03-18T03:29:08.013Z,57.14
2023-03-18T03:29:58.049Z,57.38
2023-03-18T03:30:48.125Z,57.33
2023-03-18T03:31:38.138Z,57.30
2023-03-18T03:32:28.188Z,57.56
2023-03-18T03:33:18.209Z,56.81
2023-03-18T03:34:08.259Z,57.13
2023-03-18T03:34:58.334Z,57.06
2023-03-18T03:35:48.452Z,57.09
2023-03-18T03:36:38.442Z,57.54
2023-03-18T03:37:28.477Z,57.09
2023-03-18T03:38:18.555Z,57.47
2023-03-18T03:39:08.619Z,57.80
2023-03-18T03:39:58.636Z,57.71
2023-03-18T03:40:48.666Z,57.56
2023-03-18T03:41:38.720Z,57.16
2023-03-18T03:42:28.773Z,57.85
2023-03-18T03:43:18.825Z,58.09
2023-03-18T03:44:08.890Z,57.46
2023-03-18T03:44:58.925Z,57.78
2023-03-18T03:45:48.955Z,58.16
2023-03-18T03:46:39.129Z,58.00
2023-03-18T03:47:29.073Z,58.10
2023-03-18T03:48:19.154Z,57.34
2023-03-18T03:49:09.209Z,57.97
2023-03-18T03:49:59.259Z,57.98
2023-03-18T03:50:49.295Z,58.25
2023-03-18T03:51:39.331Z,58.30
2023-03-18T03:52:29.371Z,58.10
2023-03-18T03:53:19.406Z,58.51
2023-03-18T03:54:09.463Z,58.00
2023-03-18T03:54:59.548Z,57.93
2023-03-18T03:55:49.597Z,57.83
2023-03-18T03:56:39.644Z,57.99
2023-03-18T03:57:29.687Z,57.43
2023-03-18T03:58:19.737Z,56.76
2023-03-18T03:59:09.766Z,57.41
2023-03-18T03:59:59.799Z,57.13
2023-03-18T04:00:49.832Z,57.21
2023-03-18T04:01:39.909Z,56.77
2023-03-18T04:02:29.986Z,57.72
2023-03-18T04:03:20.038Z,58.05
2023-03-18T04:04:10.090Z,57.24
2023-03-18T04:05:00.133Z,57.75
2023-03-18T04:05:50.149Z,56.97
2023-03-18T04:06:40.226Z,57.50
2023-03-18T04:07:30.259Z,57.28
2023-03-18T04:08:20.298Z,57.09
2023-03-18T04:09:10.351Z,56.63
2023-03-18T04:10:00.392Z,56.73
2023-03-18T04:10:50.448Z,56.40
2023-03-18T04:11:40.527Z,56.24
2023-03-18T04:12:30.557Z,56.32
2023-03-18T04:13:20.646Z,56.38
2023-03-18T04:14:10.712Z,56.49
2023-03-18T04:15:00.713Z,56.69
2023-03-18T04:15:50.817Z,56.54
2023-03-18T04:16:40.833Z,56.52
2023-03-18T04:17:30.873Z,57.14
2023-03-18T04:18:20.945Z,57.22
2023-03-18T04:19:11.002Z,57.01
2023-03-18T04:20:01.025Z,57.85
2023-03-18T04:20:51.068Z,57.45
2023-03-18T04:21:41.152Z,57.76
2023-03-18T04:22:31.188Z,57.76
2023-03-18T04:23:21.262Z,57.83
2023-03-18T04:24:11.579Z,58.19
2023-03-18T04:25:01.599Z,57.94
2023-03-18T04:25:51.629Z,58.16
2023-03-18T04:26:41.706Z,58.33
2023-03-18T04:27:31.736Z,58.82
2023-03-18T04:28:21.816Z,58.73
2023-03-18T04:29:11.876Z,58.11
2023-03-18T04:30:01.939Z,58.01
2023-03-18T04:30:51.988Z,58.12
2023-03-18T04:31:42.106Z,58.21
2023-03-18T04:32:32.117Z,58.13
2023-03-18T04:33:22.149Z,58.37
2023-03-18T04:34:12.190Z,58.19
2023-03-18T04:35:02.231Z,58.44
2023-03-18T04:35:52.284Z,58.38
2023-03-18T04:36:42.318Z,58.99
2023-03-18T04:37:32.386Z,58.77
2023-03-18T04:38:22.457Z,58.98
2023-03-18T04:39:12.504Z,58.42
2023-03-18T04:40:02.550Z,58.57
2023-03-18T04:40:52.600Z,58.81
2023-03-18T04:41:42.622Z,58.95
2023-03-18T04:42:32.656Z,58.20
2023-03-18T04:43:22.703Z,58.51
2023-03-18T04:44:12.786Z,59.09
2023-03-18T04:45:02.827Z,59.42
2023-03-18T04:45:52.895Z,59.21
2023-03-18T04:46:42.944Z,59.05
2023-03-18T04:47:32.943Z,58.42
2023-03-18T04:48:23.030Z,58.94
2023-03-18T04:49:13.075Z,58.39
2023-03-18T04:50:03.136Z,58.19
2023-03-18T04:50:53.197Z,58.91
2023-03-18T04:51:43.306Z,59.19
2023-03-18T04:52:33.343Z,58.42
2023-03-18T04:53:23.396Z,58.64
2023-03-18T04:54:13.448Z,58.58
2023-03-18T04:55:03.500Z,58.22
2023-03-18T04:55:53.528Z,57.65
2023-03-18T04:56:43.607Z,57.43
2023-03-18T04:57:33.645Z,57.17
2023-03-18T04:58:23.690Z,58.38
2023-03-18T04:59:13.740Z,58.00
2023-03-18T05:00:03.782Z,57.74
2023-03-18T05:00:53.864Z,57.65
2023-03-18T05:01:43.884Z,57.43
2023-03-18T05:02:33.889Z,57.69
2023-03-18T05:03:23.924Z,57.52
2023-03-18T05:04:14.135Z,57.44
2023-03-18T05:05:04.106Z,57.95
2023-03-18T05:05:54.143Z,58.45
2023-03-18T05:06:44.174Z,57.48
2023-03-18T05:07:34.245Z,57.21
2023-03-18T05:08:24.277Z,58.25
2023-03-18T05:09:14.386Z,58.23
2023-03-18T05:10:04.419Z,57.78
2023-03-18T05:10:54.459Z,57.76
2023-03-18T05:11:44.488Z,56.96
2023-03-18T05:12:34.582Z,58.37
2023-03-18T05:13:24.610Z,58.08
2023-03-18T05:14:14.659Z,58.46
2023-03-18T05:15:04.699Z,57.99
2023-03-18T05:15:54.745Z,59.13
2023-03-18T05:16:44.890Z,58.36
2023-03-18T05:17:34.883Z,58.52
2023-03-18T05:18:24.894Z,59.02
2023-03-18T05:19:14.949Z,59.44
2023-03-18T05:20:04.978Z,59.14
2023-03-18T05:20:55.070Z,59.51
2023-03-18T05:21:45.114Z,59.44
2023-03-18T05:22:35.176Z,59.11
2023-03-18T05:23:25.197Z,58.84
2023-03-18T05:24:15.243Z,59.15
2023-03-18T05:25:05.273Z,58.56
2023-03-18T05:25:55.361Z,59.41
2023-03-18T05:26:45.390Z,58.86
2023-03-18T05:27:35.468Z,58.61
2023-03-18T05:28:25.504Z,58.81
2023-03-18T05:29:15.566Z,58.87
2023-03-18T05:30:05.606Z,58.46
2023-03-18T05:30:55.644Z,58.59
2023-03-18T05:31:45.727Z,59.69
2023-03-18T05:32:35.765Z,58.91
2023-03-18T05:33:25.792Z,59.10
2023-03-18T05:34:15.854Z,59.55
2023-03-18T05:35:05.895Z,59.46
2023-03-18T05:35:56.029Z,59.12
2023-03-18T05:36:46.000Z,59.36
2023-03-18T05:37:36.079Z,58.59
2023-03-18T05:38:26.119Z,59.30
2023-03-18T05:39:16.206Z,58.86
2023-03-18T05:40:06.440Z,58.25
2023-03-18T05:40:56.528Z,57.60
2023-03-18T05:41:46.546Z,58.31
2023-03-18T05:42:49.451Z,58.72
2023-03-18T05:43:27.959Z,58.17
2023-03-18T05:44:17.016Z,58.64
2023-03-18T05:45:07.032Z,57.93
2023-03-18T05:45:57.187Z,57.95
2023-03-18T05:46:47.163Z,58.87
2023-03-18T05:47:37.243Z,59.51
2023-03-18T05:48:27.277Z,59.39
2023-03-18T05:49:17.518Z,59.29
2023-03-18T05:50:07.528Z,58.14
2023-03-18T05:50:57.581Z,58.74
2023-03-18T05:51:47.611Z,58.66
2023-03-18T05:52:37.654Z,59.26
2023-03-18T05:53:27.715Z,58.88
2023-03-18T05:54:17.745Z,59.64
2023-03-18T05:55:07.773Z,59.55
2023-03-18T05:55:57.866Z,59.32
2023-03-18T05:56:47.897Z,59.36
2023-03-18T05:57:37.936Z,59.70
2023-03-18T05:58:27.982Z,58.46
2023-03-18T05:59:18.029Z,59.34
2023-03-18T06:00:08.063Z,58.84
2023-03-18T06:00:58.142Z,57.90
2023-03-18T06:01:48.177Z,57.87
2023-03-18T06:02:44.478Z,59.05
2023-03-18T06:03:28.329Z,58.46
2023-03-18T06:04:18.348Z,59.02
2023-03-18T06:05:08.413Z,58.11
2023-03-18T06:05:58.411Z,59.30
2023-03-18T06:06:48.699Z,57.75
2023-03-18T06:07:38.726Z,59.54
2023-03-18T06:08:28.756Z,58.46
2023-03-18T06:09:18.825Z,59.91
2023-03-18T06:10:08.861Z,59.33
2023-03-18T06:10:58.907Z,58.88
2023-03-18T06:11:48.936Z,59.09
2023-03-18T06:12:39.028Z,59.65
2023-03-18T06:13:29.044Z,59.47
2023-03-18T06:14:19.093Z,59.01
2023-03-18T06:15:09.138Z,59.28
2023-03-18T06:15:59.172Z,60.26
2023-03-18T06:16:49.299Z,60.23
2023-03-18T06:17:39.242Z,59.41
2023-03-18T06:18:29.288Z,60.39
2023-03-18T06:19:19.345Z,60.06
2023-03-18T06:20:09.471Z,60.32
2023-03-18T06:20:59.479Z,60.20
2023-03-18T06:21:49.542Z,59.66
2023-03-18T06:22:39.566Z,60.48
2023-03-18T06:23:29.622Z,60.13
2023-03-18T06:24:19.660Z,60.60
2023-03-18T06:25:09.700Z,60.50
2023-03-18T06:25:59.730Z,60.34
2023-03-18T06:26:49.852Z,60.46
2023-03-18T06:27:39.889Z,60.59
2023-03-18T06:28:29.971Z,60.42
2023-03-18T06:29:20.047Z,60.86
2023-03-18T06:30:10.075Z,59.53
2023-03-18T06:31:00.124Z,60.54
2023-03-18T06:31:50.189Z,60.44
2023-03-18T06:32:40.513Z,60.56
2023-03-18T06:33:30.307Z,60.32
2023-03-18T06:34:20.358Z,60.63
2023-03-18T06:35:10.395Z,60.67
2023-03-18T06:36:00.493Z,60.19
2023-03-18T06:36:50.501Z,60.75
2023-03-18T06:37:40.509Z,61.16
2023-03-18T06:38:30.578Z,61.14
2023-03-18T06:39:20.638Z,61.27
2023-03-18T06:40:10.707Z,60.75
2023-03-18T06:41:00.768Z,61.01
2023-03-18T06:41:50.848Z,59.85
2023-03-18T06:42:40.881Z,60.64
2023-03-18T06:43:30.927Z,60.85
2023-03-18T06:44:20.990Z,60.19
2023-03-18T06:45:11.046Z,60.95
2023-03-18T06:46:01.069Z,60.73
2023-03-18T06:46:51.185Z,61.19
2023-03-18T06:47:41.245Z,61.29
2023-03-18T06:48:31.260Z,61.24
2023-03-18T06:49:21.305Z,60.90
2023-03-18T06:50:11.379Z,61.13
2023-03-18T06:51:01.389Z,60.61
2023-03-18T06:51:51.463Z,60.74
2023-03-18T06:52:41.522Z,60.46
2023-03-18T06:53:31.582Z,60.50
2023-03-18T06:54:21.641Z,61.25
2023-03-18T06:55:11.669Z,60.76
2023-03-18T06:56:01.697Z,60.60
2023-03-18T06:56:51.776Z,60.44
2023-03-18T06:57:41.810Z,61.34
2023-03-18T06:58:31.847Z,61.33
2023-03-18T06:59:21.894Z,61.07
2023-03-18T07:00:12.000Z,61.42
2023-03-18T07:01:02.089Z,61.03
2023-03-18T07:01:52.203Z,61.35
2023-03-18T07:02:42.119Z,61.48
2023-03-18T07:03:32.190Z,60.93
2023-03-18T07:04:22.239Z,60.65
2023-03-18T07:05:12.304Z,59.59
2023-03-18T07:06:02.351Z,59.91
2023-03-18T07:06:52.380Z,60.98
2023-03-18T07:07:42.430Z,61.25
2023-03-18T07:08:32.585Z,61.41
2023-03-18T07:09:22.555Z,60.65
2023-03-18T07:10:12.580Z,60.76
2023-03-18T07:11:02.611Z,60.48
2023-03-18T07:11:52.652Z,61.04
2023-03-18T07:12:42.686Z,59.65
2023-03-18T07:13:32.770Z,60.92
2023-03-18T07:14:22.843Z,61.13
2023-03-18T07:15:12.885Z,61.61
2023-03-18T07:16:02.969Z,61.44
2023-03-18T07:16:52.967Z,59.88
2023-03-18T07:17:43.002Z,60.32
2023-03-18T07:18:33.030Z,60.00
2023-03-18T07:19:23.100Z,59.82
2023-03-18T07:20:13.205Z,60.77
2023-03-18T07:21:03.253Z,60.33
2023-03-18T07:21:53.317Z,60.03
2023-03-18T07:22:43.345Z,59.68
2023-03-18T07:23:33.424Z,59.72
2023-03-18T07:24:23.521Z,59.86
2023-03-18T07:25:13.535Z,58.55
2023-03-18T07:26:03.567Z,60.43
2023-03-18T07:26:53.636Z,61.28
2023-03-18T07:27:43.631Z,61.22
2023-03-18T07:28:33.707Z,61.38
2023-03-18T07:29:23.772Z,61.12
2023-03-18T07:30:13.824Z,61.17
2023-03-18T07:31:03.925Z,60.32
2023-03-18T07:31:53.989Z,60.86
2023-03-18T07:32:43.963Z,60.21
2023-03-18T07:33:34.028Z,60.28
2023-03-18T07:34:24.081Z,59.99
2023-03-18T07:35:14.177Z,60.32
2023-03-18T07:36:04.243Z,60.30
2023-03-18T07:36:54.388Z,61.32
2023-03-18T07:37:44.296Z,61.28
2023-03-18T07:38:34.372Z,60.73
2023-03-18T07:39:24.424Z,61.25
2023-03-18T07:40:14.495Z,61.01
2023-03-18T07:41:04.507Z,61.21
2023-03-18T07:41:54.619Z,60.27
2023-03-18T07:42:44.646Z,60.94
2023-03-18T07:43:34.692Z,61.44
2023-03-18T07:44:24.740Z,61.02
2023-03-18T07:45:14.764Z,59.20
2023-03-18T07:46:04.864Z,60.45
2023-03-18T07:46:54.885Z,60.32
2023-03-18T07:47:47.105Z,60.61
2023-03-18T07:48:34.975Z,61.11
2023-03-18T07:49:25.024Z,61.31
2023-03-18T07:50:15.185Z,60.14
2023-03-18T07:51:05.251Z,61.54
2023-03-18T07:51:55.336Z,61.56
2023-03-18T07:52:45.359Z,61.03
2023-03-18T07:53:35.462Z,61.03
2023-03-18T07:54:25.491Z,61.02
2023-03-18T07:55:15.540Z,61.31
2023-03-18T07:56:05.584Z,59.77
2023-03-18T07:56:55.727Z,59.99
2023-03-18T07:57:45.676Z,60.78
2023-03-18T07:58:35.758Z,61.42
2023-03-18T07:59:25.826Z,60.63
2023-03-18T08:00:15.873Z,60.66
2023-03-18T08:01:05.899Z,60.03
2023-03-18T08:01:55.974Z,60.91
2023-03-18T08:02:46.020Z,61.84
2023-03-18T08:03:36.081Z,61.18
2023-03-18T08:04:26.244Z,60.22
2023-03-18T08:05:16.398Z,59.79
2023-03-18T08:06:06.218Z,58.39
2023-03-18T08:06:56.262Z,59.58
2023-03-18T08:07:46.310Z,60.35
2023-03-18T08:08:36.347Z,60.39
2023-03-18T08:09:26.421Z,60.65
2023-03-18T08:10:16.459Z,60.74
2023-03-18T08:11:06.571Z,60.24
2023-03-18T08:11:56.596Z,59.92
2023-03-18T08:12:52.951Z,59.83
2023-03-18T08:13:37.691Z,60.37
2023-03-18T08:14:26.746Z,59.21
2023-03-18T08:15:16.815Z,59.81
2023-03-18T08:16:06.876Z,59.88
2023-03-18T08:16:56.875Z,60.03
2023-03-18T08:17:46.958Z,59.69
2023-03-18T08:18:36.999Z,60.05
2023-03-18T08:19:27.457Z,59.14
2023-03-18T08:20:17.265Z,59.04
2023-03-18T08:21:07.305Z,59.74
2023-03-18T08:21:57.354Z,59.22
2023-03-18T08:22:47.377Z,59.79
2023-03-18T08:23:37.462Z,59.59
2023-03-18T08:24:27.567Z,58.67
2023-03-18T08:25:17.595Z,58.70
2023-03-18T08:26:07.628Z,59.35
2023-03-18T08:26:57.663Z,59.66
2023-03-18T08:27:47.717Z,59.23
2023-03-18T08:28:37.738Z,59.14
2023-03-18T08:29:27.799Z,58.72
2023-03-18T08:30:17.824Z,59.29
2023-03-18T08:31:07.888Z,59.30
2023-03-18T08:31:57.969Z,59.76
2023-03-18T08:32:48.043Z,58.40
2023-03-18T08:33:38.117Z,57.90
2023-03-18T08:34:28.131Z,59.10
2023-03-18T08:35:20.215Z,58.52
2023-03-18T08:36:08.259Z,57.98
2023-03-18T08:36:58.330Z,58.38
2023-03-18T08:37:48.358Z,58.52
2023-03-18T08:38:38.459Z,58.58
2023-03-18T08:39:28.501Z,58.15
2023-03-18T08:40:18.608Z,58.17
2023-03-18T08:41:08.611Z,58.50
2023-03-18T08:41:58.672Z,58.54
2023-03-18T08:42:48.718Z,58.16
2023-03-18T08:43:39.234Z,59.10
2023-03-18T08:44:28.839Z,58.65
2023-03-18T08:45:18.953Z,59.57
2023-03-18T08:46:09.043Z,59.34
2023-03-18T08:46:59.018Z,58.96
2023-03-18T08:47:49.058Z,59.12
2023-03-18T08:48:39.149Z,60.01
2023-03-18T08:49:29.162Z,59.56
2023-03-18T08:50:19.210Z,58.78
2023-03-18T08:51:09.279Z,58.96
2023-03-18T08:51:59.301Z,59.51
2023-03-18T08:52:49.333Z,59.40
2023-03-18T08:53:39.492Z,58.27
2023-03-18T08:54:29.510Z,58.47
2023-03-18T08:55:19.645Z,58.89
2023-03-18T08:56:09.603Z,59.78
2023-03-18T08:56:59.687Z,60.00
2023-03-18T08:57:49.703Z,58.79
2023-03-18T08:58:39.789Z,58.20
2023-03-18T08:59:29.877Z,59.75
2023-03-18T09:00:19.886Z,60.13
2023-03-18T09:01:11.890Z,59.42
2023-03-18T09:01:59.987Z,59.20
2023-03-18T09:02:50.016Z,59.24
2023-03-18T09:03:40.180Z,58.68
2023-03-18T09:04:30.148Z,58.96
2023-03-18T09:05:20.185Z,59.01
2023-03-18T09:06:10.394Z,59.30
2023-03-18T09:07:00.434Z,58.82
2023-03-18T09:07:50.463Z,59.60
2023-03-18T09:08:40.615Z,59.38
2023-03-18T09:09:41.037Z,58.92
2023-03-18T09:10:21.644Z,59.34
2023-03-18T09:11:10.693Z,58.94
2023-03-18T09:12:00.757Z,59.78
2023-03-18T09:12:50.817Z,59.65
2023-03-18T09:13:40.928Z,59.14
2023-03-18T09:14:30.964Z,59.17
2023-03-18T09:15:21.045Z,60.04
2023-03-18T09:16:11.124Z,59.47
2023-03-18T09:17:01.333Z,59.07
2023-03-18T09:18:08.075Z,58.73
2023-03-18T09:18:44.832Z,58.55
2023-03-18T09:19:31.411Z,58.29
2023-03-18T09:20:21.442Z,58.48
2023-03-18T09:21:11.500Z,58.16
2023-03-18T09:22:01.577Z,58.82
2023-03-18T09:22:51.644Z,58.44
2023-03-18T09:23:41.719Z,58.45
2023-03-18T09:24:32.029Z,58.36
2023-03-18T09:25:22.061Z,58.57
2023-03-18T09:26:12.093Z,57.77
2023-03-18T09:27:02.182Z,59.26
2023-03-18T09:27:52.212Z,59.37
2023-03-18T09:28:42.260Z,59.16
2023-03-18T09:29:32.342Z,58.56
2023-03-18T09:30:22.339Z,58.95
2023-03-18T09:31:12.513Z,58.96
2023-03-18T09:32:02.506Z,59.03
2023-03-18T09:32:52.609Z,57.98
2023-03-18T09:33:42.627Z,58.02
2023-03-18T09:34:32.664Z,58.57
2023-03-18T09:35:22.706Z,58.92
2023-03-18T09:36:12.839Z,58.20
2023-03-18T09:37:02.835Z,59.34
2023-03-18T09:37:52.906Z,58.46
2023-03-18T09:38:43.002Z,59.21
2023-03-18T09:39:33.065Z,59.27
2023-03-18T09:40:23.130Z,59.13
2023-03-18T09:41:13.154Z,58.80
2023-03-18T09:42:03.256Z,58.76
2023-03-18T09:42:53.278Z,58.28
2023-03-18T09:43:43.321Z,58.56
2023-03-18T09:44:33.370Z,58.02
2023-03-18T09:45:23.408Z,59.06
2023-03-18T09:46:13.611Z,59.07
2023-03-18T09:47:03.743Z,58.37
2023-03-18T09:47:53.566Z,58.42
2023-03-18T09:48:43.601Z,57.88
2023-03-18T09:49:33.663Z,58.13
2023-03-18T09:50:23.708Z,58.57
2023-03-18T09:51:13.731Z,58.01
2023-03-18T09:52:03.818Z,58.01
2023-03-18T09:52:53.846Z,58.54
2023-03-18T09:53:43.937Z,59.14
2023-03-18T09:54:34.000Z,57.90
2023-03-18T09:55:24.042Z,57.64
2023-03-18T09:56:14.076Z,58.28
2023-03-18T09:57:04.125Z,59.18
2023-03-18T09:57:54.158Z,59.94
2023-03-18T09:58:44.238Z,59.30
2023-03-18T09:59:34.781Z,59.19
2023-03-18T10:00:24.490Z,58.13
2023-03-18T10:01:14.409Z,58.32
2023-03-18T10:02:04.617Z,58.37
2023-03-18T10:02:54.725Z,59.32
2023-03-18T10:03:44.751Z,58.29
2023-03-18T10:04:35.071Z,58.83
2023-03-18T10:05:25.112Z,58.66
2023-03-18T10:06:15.152Z,59.14
2023-03-18T10:07:05.194Z,59.92
2023-03-18T10:07:55.232Z,58.56
2023-03-18T10:08:45.274Z,59.73
2023-03-18T10:09:35.342Z,59.21
2023-03-18T10:10:25.395Z,58.97
2023-03-18T10:11:15.432Z,58.37
2023-03-18T10:12:05.476Z,59.70
2023-03-18T10:12:55.506Z,58.93
2023-03-18T10:13:45.553Z,59.44
2023-03-18T10:14:36.441Z,59.90
2023-03-18T10:15:25.662Z,59.73
2023-03-18T10:16:15.771Z,59.92
2023-03-18T10:17:05.798Z,59.28
2023-03-18T10:17:55.835Z,59.16
2023-03-18T10:18:45.921Z,58.27
2023-03-18T10:19:35.943Z,58.03
2023-03-18T10:20:25.988Z,58.26
2023-03-18T10:21:16.038Z,58.28
2023-03-18T10:22:06.073Z,58.72
2023-03-18T10:22:56.127Z,59.90
2023-03-18T10:23:46.163Z,58.16
2023-03-18T10:24:36.256Z,59.71
2023-03-18T10:25:26.283Z,59.43
2023-03-18T10:26:16.325Z,59.86
2023-03-18T10:27:06.361Z,60.40
2023-03-18T10:27:56.396Z,59.78
2023-03-18T10:28:46.439Z,59.52
2023-03-18T10:29:36.521Z,60.08
2023-03-18T10:30:26.563Z,59.44
2023-03-18T10:31:16.693Z,59.18
2023-03-18T10:32:06.661Z,60.12
2023-03-18T10:32:56.745Z,59.69
2023-03-18T10:33:46.748Z,60.03
2023-03-18T10:34:36.828Z,59.92
2023-03-18T10:35:26.857Z,59.24
2023-03-18T10:36:16.907Z,58.85
2023-03-18T10:37:06.951Z,58.20
2023-03-18T10:37:57.027Z,57.80
2023-03-18T10:38:47.163Z,57.88
2023-03-18T10:39:37.180Z,57.68
2023-03-18T10:40:27.203Z,57.57
2023-03-18T10:41:17.239Z,58.58
2023-03-18T10:42:07.317Z,58.53
2023-03-18T10:42:57.351Z,57.92
2023-03-18T10:43:47.390Z,58.51
2023-03-18T10:44:37.480Z,59.24